sensor_id;sensor_type;location;lat;lon;timestamp;P1;durP1;ratioP1;P2;durP2;ratioP2
46729;SDS011;32476;50.002;11.854;2023-04-25T00:00:54;13.50;;;9.30;;
46729;SDS011;32476;50.002;11.854;2023-04-25T00:03:20;14.03;;;10.03;;
46729;SDS011;32476;50.002;11.854;2023-04-25T00:05:47;12.43;;;9.33;;
46729;SDS011;32476;50.002;11.854;2023-04-25T00:08:13;12.97;;;9.40;;
46729;SDS011;32476;50.002;11.854;2023-04-25T00:10:39;14.20;;;9.50;;
46729;SDS011;32476;50.002;11.854;2023-04-25T00:13:07;13.60;;;9.00;;
46729;SDS011;32476;50.002;11.854;2023-04-25T00:15:33;15.33;;;9.33;;
46729;SDS011;32476;50.002;11.854;2023-04-25T00:18:01;13.40;;;9.03;;
46729;SDS011;32476;50.002;11.854;2023-04-25T00:20:28;14.40;;;9.10;;
46729;SDS011;32476;50.002;11.854;2023-04-25T00:22:55;14.40;;;10.07;;
46729;SDS011;32476;50.002;11.854;2023-04-25T00:25:20;13.53;;;8.93;;
46729;SDS011;32476;50.002;11.854;2023-04-25T00:27:48;15.90;;;10.80;;
46729;SDS011;32476;50.002;11.854;2023-04-25T00:30:14;12.23;;;9.47;;
46729;SDS011;32476;50.002;11.854;2023-04-25T00:32:39;15.80;;;8.83;;
46729;SDS011;32476;50.002;11.854;2023-04-25T00:35:07;12.80;;;9.30;;
46729;SDS011;32476;50.002;11.854;2023-04-25T00:37:34;13.93;;;9.63;;
46729;SDS011;32476;50.002;11.854;2023-04-25T00:40:00;17.50;;;9.70;;
46729;SDS011;32476;50.002;11.854;2023-04-25T00:42:27;13.63;;;8.97;;
46729;SDS011;32476;50.002;11.854;2023-04-25T00:44:55;12.00;;;9.13;;
46729;SDS011;32476;50.002;11.854;2023-04-25T00:47:21;12.27;;;9.57;;
46729;SDS011;32476;50.002;11.854;2023-04-25T00:49:49;14.27;;;9.73;;
46729;SDS011;32476;50.002;11.854;2023-04-25T00:52:14;15.90;;;9.60;;
46729;SDS011;32476;50.002;11.854;2023-04-25T00:54:40;16.83;;;10.50;;
46729;SDS011;32476;50.002;11.854;2023-04-25T00:57:08;14.57;;;9.90;;
46729;SDS011;32476;50.002;11.854;2023-04-25T00:59:33;14.00;;;10.20;;
46729;SDS011;32476;50.002;11.854;2023-04-25T01:02:00;14.23;;;9.67;;
46729;SDS011;32476;50.002;11.854;2023-04-25T01:04:28;15.00;;;10.53;;
46729;SDS011;32476;50.002;11.854;2023-04-25T01:06:54;16.27;;;10.30;;
46729;SDS011;32476;50.002;11.854;2023-04-25T01:09:21;13.23;;;9.17;;
46729;SDS011;32476;50.002;11.854;2023-04-25T01:11:49;13.60;;;9.27;;
46729;SDS011;32476;50.002;11.854;2023-04-25T01:14:15;12.30;;;9.67;;
46729;SDS011;32476;50.002;11.854;2023-04-25T01:16:41;15.53;;;10.50;;
46729;SDS011;32476;50.002;11.854;2023-04-25T01:19:09;13.13;;;9.57;;
46729;SDS011;32476;50.002;11.854;2023-04-25T01:21:37;15.90;;;9.83;;
46729;SDS011;32476;50.002;11.854;2023-04-25T01:24:03;14.43;;;9.83;;
46729;SDS011;32476;50.002;11.854;2023-04-25T01:26:31;14.13;;;9.43;;
46729;SDS011;32476;50.002;11.854;2023-04-25T01:28:57;13.70;;;10.70;;
46729;SDS011;32476;50.002;11.854;2023-04-25T01:31:23;14.30;;;10.20;;
46729;SDS011;32476;50.002;11.854;2023-04-25T01:33:51;14.40;;;10.60;;
46729;SDS011;32476;50.002;11.854;2023-04-25T01:36:17;13.80;;;10.47;;
46729;SDS011;32476;50.002;11.854;2023-04-25T01:38:43;15.47;;;11.00;;
46729;SDS011;32476;50.002;11.854;2023-04-25T01:41:13;14.83;;;10.60;;
46729;SDS011;32476;50.002;11.854;2023-04-25T01:43:39;15.03;;;10.97;;
46729;SDS011;32476;50.002;11.854;2023-04-25T01:46:05;14.67;;;10.37;;
46729;SDS011;32476;50.002;11.854;2023-04-25T01:48:33;14.47;;;10.57;;
46729;SDS011;32476;50.002;11.854;2023-04-25T01:50:58;14.57;;;9.70;;
46729;SDS011;32476;50.002;11.854;2023-04-25T01:53:24;16.73;;;10.80;;
46729;SDS011;32476;50.002;11.854;2023-04-25T01:55:52;13.63;;;10.50;;
46729;SDS011;32476;50.002;11.854;2023-04-25T01:58:18;19.17;;;10.90;;
46729;SDS011;32476;50.002;11.854;2023-04-25T02:00:44;19.67;;;10.63;;
46729;SDS011;32476;50.002;11.854;2023-04-25T02:03:12;13.60;;;10.50;;
46729;SDS011;32476;50.002;11.854;2023-04-25T02:05:38;16.47;;;10.03;;
46729;SDS011;32476;50.002;11.854;2023-04-25T02:08:07;14.10;;;9.47;;
46729;SDS011;32476;50.002;11.854;2023-04-25T02:10:36;15.77;;;9.90;;
46729;SDS011;32476;50.002;11.854;2023-04-25T02:13:02;15.83;;;9.67;;
46729;SDS011;32476;50.002;11.854;2023-04-25T02:15:28;14.13;;;9.63;;
46729;SDS011;32476;50.002;11.854;2023-04-25T02:17:55;12.63;;;9.77;;
46729;SDS011;32476;50.002;11.854;2023-04-25T02:20:21;17.07;;;9.63;;
46729;SDS011;32476;50.002;11.854;2023-04-25T02:22:48;13.30;;;9.53;;
46729;SDS011;32476;50.002;11.854;2023-04-25T02:25:16;14.57;;;9.93;;
46729;SDS011;32476;50.002;11.854;2023-04-25T02:27:43;15.10;;;10.17;;
46729;SDS011;32476;50.002;11.854;2023-04-25T02:30:08;15.77;;;9.70;;
46729;SDS011;32476;50.002;11.854;2023-04-25T02:32:36;15.17;;;10.23;;
46729;SDS011;32476;50.002;11.854;2023-04-25T02:35:02;14.83;;;10.53;;
46729;SDS011;32476;50.002;11.854;2023-04-25T02:37:31;14.37;;;10.00;;
46729;SDS011;32476;50.002;11.854;2023-04-25T02:39:59;17.80;;;10.70;;
46729;SDS011;32476;50.002;11.854;2023-04-25T02:42:26;14.77;;;10.00;;
46729;SDS011;32476;50.002;11.854;2023-04-25T02:44:52;16.17;;;10.13;;
46729;SDS011;32476;50.002;11.854;2023-04-25T02:47:20;19.67;;;10.90;;
46729;SDS011;32476;50.002;11.854;2023-04-25T02:49:46;14.20;;;10.63;;
46729;SDS011;32476;50.002;11.854;2023-04-25T02:52:12;15.23;;;10.33;;
46729;SDS011;32476;50.002;11.854;2023-04-25T02:54:39;18.40;;;10.60;;
46729;SDS011;32476;50.002;11.854;2023-04-25T02:57:06;19.03;;;11.57;;
46729;SDS011;32476;50.002;11.854;2023-04-25T02:59:32;17.30;;;10.93;;
46729;SDS011;32476;50.002;11.854;2023-04-25T03:02:00;15.50;;;10.37;;
46729;SDS011;32476;50.002;11.854;2023-04-25T03:04:26;15.10;;;10.77;;
46729;SDS011;32476;50.002;11.854;2023-04-25T03:06:52;15.30;;;10.27;;
46729;SDS011;32476;50.002;11.854;2023-04-25T03:09:20;15.50;;;9.90;;
46729;SDS011;32476;50.002;11.854;2023-04-25T03:11:46;15.17;;;10.23;;
46729;SDS011;32476;50.002;11.854;2023-04-25T03:14:12;14.83;;;10.27;;
46729;SDS011;32476;50.002;11.854;2023-04-25T03:16:39;16.43;;;10.43;;
46729;SDS011;32476;50.002;11.854;2023-04-25T03:19:05;16.90;;;10.80;;
46729;SDS011;32476;50.002;11.854;2023-04-25T03:21:32;16.57;;;10.60;;
46729;SDS011;32476;50.002;11.854;2023-04-25T03:24:00;15.00;;;10.53;;
46729;SDS011;32476;50.002;11.854;2023-04-25T03:26:27;17.27;;;11.07;;
46729;SDS011;32476;50.002;11.854;2023-04-25T03:28:53;17.53;;;10.33;;
46729;SDS011;32476;50.002;11.854;2023-04-25T03:31:21;14.30;;;10.40;;
46729;SDS011;32476;50.002;11.854;2023-04-25T03:33:47;17.30;;;10.43;;
46729;SDS011;32476;50.002;11.854;2023-04-25T03:36:13;17.57;;;11.40;;
46729;SDS011;32476;50.002;11.854;2023-04-25T03:38:40;18.70;;;11.30;;
46729;SDS011;32476;50.002;11.854;2023-04-25T03:41:07;16.30;;;11.10;;
46729;SDS011;32476;50.002;11.854;2023-04-25T03:43:33;17.17;;;11.50;;
46729;SDS011;32476;50.002;11.854;2023-04-25T03:46:00;15.87;;;10.87;;
46729;SDS011;32476;50.002;11.854;2023-04-25T03:48:26;17.43;;;10.77;;
46729;SDS011;32476;50.002;11.854;2023-04-25T03:50:52;16.20;;;10.60;;
46729;SDS011;32476;50.002;11.854;2023-04-25T03:53:20;18.93;;;11.67;;
46729;SDS011;32476;50.002;11.854;2023-04-25T03:55:46;19.17;;;11.70;;
46729;SDS011;32476;50.002;11.854;2023-04-25T03:58:11;15.80;;;11.10;;
46729;SDS011;32476;50.002;11.854;2023-04-25T04:00:39;18.37;;;11.77;;
46729;SDS011;32476;50.002;11.854;2023-04-25T04:03:14;16.47;;;11.00;;
46729;SDS011;32476;50.002;11.854;2023-04-25T04:05:42;17.20;;;10.27;;
46729;SDS011;32476;50.002;11.854;2023-04-25T04:08:07;15.87;;;10.53;;
46729;SDS011;32476;50.002;11.854;2023-04-25T04:10:33;17.90;;;11.00;;
46729;SDS011;32476;50.002;11.854;2023-04-25T04:13:01;15.00;;;11.40;;
46729;SDS011;32476;50.002;11.854;2023-04-25T04:15:27;18.30;;;12.00;;
46729;SDS011;32476;50.002;11.854;2023-04-25T04:17:53;17.90;;;11.87;;
46729;SDS011;32476;50.002;11.854;2023-04-25T04:20:21;15.70;;;11.47;;
46729;SDS011;32476;50.002;11.854;2023-04-25T04:22:47;17.50;;;12.07;;
46729;SDS011;32476;50.002;11.854;2023-04-25T04:25:12;19.07;;;12.07;;
46729;SDS011;32476;50.002;11.854;2023-04-25T04:27:40;19.07;;;12.90;;
46729;SDS011;32476;50.002;11.854;2023-04-25T04:30:06;17.40;;;12.60;;
46729;SDS011;32476;50.002;11.854;2023-04-25T04:32:32;16.10;;;11.90;;
46729;SDS011;32476;50.002;11.854;2023-04-25T04:35:01;20.23;;;11.67;;
46729;SDS011;32476;50.002;11.854;2023-04-25T04:37:27;19.83;;;11.80;;
46729;SDS011;32476;50.002;11.854;2023-04-25T04:39:52;17.17;;;11.07;;
46729;SDS011;32476;50.002;11.854;2023-04-25T04:42:20;14.97;;;9.57;;
46729;SDS011;32476;50.002;11.854;2023-04-25T04:44:46;15.90;;;9.77;;
46729;SDS011;32476;50.002;11.854;2023-04-25T04:47:12;12.97;;;8.40;;
46729;SDS011;32476;50.002;11.854;2023-04-25T04:49:40;14.47;;;9.13;;
46729;SDS011;32476;50.002;11.854;2023-04-25T04:52:06;12.33;;;9.00;;
46729;SDS011;32476;50.002;11.854;2023-04-25T04:54:32;13.37;;;8.83;;
46729;SDS011;32476;50.002;11.854;2023-04-25T04:57:00;11.73;;;8.17;;
46729;SDS011;32476;50.002;11.854;2023-04-25T04:59:26;12.17;;;8.10;;
46729;SDS011;32476;50.002;11.854;2023-04-25T05:01:52;14.40;;;9.03;;
46729;SDS011;32476;50.002;11.854;2023-04-25T05:04:19;11.90;;;8.40;;
46729;SDS011;32476;50.002;11.854;2023-04-25T05:06:45;14.20;;;8.90;;
46729;SDS011;32476;50.002;11.854;2023-04-25T05:09:11;12.93;;;8.30;;
46729;SDS011;32476;50.002;11.854;2023-04-25T05:11:38;11.37;;;8.13;;
46729;SDS011;32476;50.002;11.854;2023-04-25T05:14:04;10.43;;;8.00;;
46729;SDS011;32476;50.002;11.854;2023-04-25T05:16:30;10.53;;;6.63;;
46729;SDS011;32476;50.002;11.854;2023-04-25T05:18:57;6.67;;;5.00;;
46729;SDS011;32476;50.002;11.854;2023-04-25T05:21:23;6.13;;;3.90;;
46729;SDS011;32476;50.002;11.854;2023-04-25T05:23:49;6.43;;;4.23;;
46729;SDS011;32476;50.002;11.854;2023-04-25T05:26:16;4.13;;;3.10;;
46729;SDS011;32476;50.002;11.854;2023-04-25T05:28:42;3.63;;;2.43;;
46729;SDS011;32476;50.002;11.854;2023-04-25T05:31:11;4.17;;;2.80;;
46729;SDS011;32476;50.002;11.854;2023-04-25T05:33:38;2.50;;;2.30;;
46729;SDS011;32476;50.002;11.854;2023-04-25T05:36:04;2.97;;;2.23;;
46729;SDS011;32476;50.002;11.854;2023-04-25T05:38:31;3.03;;;2.00;;
46729;SDS011;32476;50.002;11.854;2023-04-25T05:40:59;2.70;;;2.20;;
46729;SDS011;32476;50.002;11.854;2023-04-25T05:43:24;4.57;;;1.80;;
46729;SDS011;32476;50.002;11.854;2023-04-25T05:45:50;2.37;;;1.70;;
46729;SDS011;32476;50.002;11.854;2023-04-25T05:48:18;1.80;;;1.33;;
46729;SDS011;32476;50.002;11.854;2023-04-25T05:50:43;1.47;;;1.30;;
46729;SDS011;32476;50.002;11.854;2023-04-25T05:53:09;1.00;;;0.90;;
46729;SDS011;32476;50.002;11.854;2023-04-25T05:55:37;1.00;;;0.90;;
46729;SDS011;32476;50.002;11.854;2023-04-25T05:58:03;3.60;;;1.20;;
46729;SDS011;32476;50.002;11.854;2023-04-25T06:00:30;0.67;;;0.67;;
46729;SDS011;32476;50.002;11.854;2023-04-25T06:02:57;0.70;;;0.70;;
46729;SDS011;32476;50.002;11.854;2023-04-25T06:05:23;2.27;;;2.07;;
46729;SDS011;32476;50.002;11.854;2023-04-25T06:07:50;3.20;;;1.13;;
46729;SDS011;32476;50.002;11.854;2023-04-25T06:10:17;2.40;;;1.83;;
46729;SDS011;32476;50.002;11.854;2023-04-25T06:12:43;1.97;;;1.70;;
46729;SDS011;32476;50.002;11.854;2023-04-25T06:15:09;2.00;;;1.70;;
46729;SDS011;32476;50.002;11.854;2023-04-25T06:17:37;3.87;;;2.20;;
46729;SDS011;32476;50.002;11.854;2023-04-25T06:20:03;2.57;;;2.10;;
46729;SDS011;32476;50.002;11.854;2023-04-25T06:22:29;3.50;;;2.20;;
46729;SDS011;32476;50.002;11.854;2023-04-25T06:24:56;3.53;;;1.70;;
46729;SDS011;32476;50.002;11.854;2023-04-25T06:27:24;2.80;;;1.60;;
46729;SDS011;32476;50.002;11.854;2023-04-25T06:29:50;1.90;;;1.33;;
46729;SDS011;32476;50.002;11.854;2023-04-25T06:32:17;3.30;;;1.40;;
46729;SDS011;32476;50.002;11.854;2023-04-25T06:34:43;2.73;;;1.30;;
46729;SDS011;32476;50.002;11.854;2023-04-25T06:37:09;1.80;;;1.70;;
46729;SDS011;32476;50.002;11.854;2023-04-25T06:39:36;2.20;;;1.80;;
46729;SDS011;32476;50.002;11.854;2023-04-25T06:42:02;3.57;;;1.80;;
46729;SDS011;32476;50.002;11.854;2023-04-25T06:44:28;2.67;;;2.40;;
46729;SDS011;32476;50.002;11.854;2023-04-25T06:46:56;4.03;;;3.00;;
46729;SDS011;32476;50.002;11.854;2023-04-25T06:49:22;2.90;;;2.60;;
46729;SDS011;32476;50.002;11.854;2023-04-25T06:51:48;5.67;;;3.57;;
46729;SDS011;32476;50.002;11.854;2023-04-25T06:54:15;7.87;;;3.83;;
46729;SDS011;32476;50.002;11.854;2023-04-25T06:56:41;6.57;;;4.00;;
46729;SDS011;32476;50.002;11.854;2023-04-25T06:59:07;6.37;;;4.17;;
46729;SDS011;32476;50.002;11.854;2023-04-25T07:01:34;9.10;;;4.37;;
46729;SDS011;32476;50.002;11.854;2023-04-25T07:04:00;8.83;;;4.63;;
46729;SDS011;32476;50.002;11.854;2023-04-25T07:06:26;7.77;;;4.47;;
46729;SDS011;32476;50.002;11.854;2023-04-25T07:08:54;6.57;;;4.60;;
46729;SDS011;32476;50.002;11.854;2023-04-25T07:11:21;8.47;;;5.00;;
46729;SDS011;32476;50.002;11.854;2023-04-25T07:13:46;8.90;;;5.00;;
46729;SDS011;32476;50.002;11.854;2023-04-25T07:16:14;6.23;;;4.70;;
46729;SDS011;32476;50.002;11.854;2023-04-25T07:18:39;9.67;;;4.80;;
46729;SDS011;32476;50.002;11.854;2023-04-25T07:21:05;6.77;;;4.53;;
46729;SDS011;32476;50.002;11.854;2023-04-25T07:23:32;6.00;;;4.57;;
46729;SDS011;32476;50.002;11.854;2023-04-25T07:25:58;7.57;;;4.77;;
46729;SDS011;32476;50.002;11.854;2023-04-25T07:28:24;12.37;;;5.07;;
46729;SDS011;32476;50.002;11.854;2023-04-25T07:30:51;7.20;;;5.03;;
46729;SDS011;32476;50.002;11.854;2023-04-25T07:33:17;7.80;;;5.03;;
46729;SDS011;32476;50.002;11.854;2023-04-25T07:35:45;9.03;;;5.53;;
46729;SDS011;32476;50.002;11.854;2023-04-25T07:38:12;10.70;;;5.87;;
46729;SDS011;32476;50.002;11.854;2023-04-25T07:40:38;12.30;;;6.20;;
46729;SDS011;32476;50.002;11.854;2023-04-25T07:43:04;9.37;;;5.87;;
46729;SDS011;32476;50.002;11.854;2023-04-25T07:45:31;11.63;;;6.60;;
46729;SDS011;32476;50.002;11.854;2023-04-25T07:47:57;11.47;;;6.97;;
46729;SDS011;32476;50.002;11.854;2023-04-25T07:50:23;11.67;;;7.00;;
46729;SDS011;32476;50.002;11.854;2023-04-25T07:52:51;10.40;;;7.20;;
46729;SDS011;32476;50.002;11.854;2023-04-25T07:55:16;14.70;;;8.83;;
46729;SDS011;32476;50.002;11.854;2023-04-25T07:57:42;11.07;;;6.83;;
46729;SDS011;32476;50.002;11.854;2023-04-25T08:00:10;9.93;;;7.13;;
46729;SDS011;32476;50.002;11.854;2023-04-25T08:02:37;10.70;;;6.23;;
46729;SDS011;32476;50.002;11.854;2023-04-25T08:05:03;12.23;;;7.00;;
46729;SDS011;32476;50.002;11.854;2023-04-25T08:07:30;9.57;;;6.50;;
46729;SDS011;32476;50.002;11.854;2023-04-25T08:09:56;11.77;;;6.73;;
46729;SDS011;32476;50.002;11.854;2023-04-25T08:12:22;10.20;;;6.87;;
46729;SDS011;32476;50.002;11.854;2023-04-25T08:14:49;9.60;;;7.33;;
46729;SDS011;32476;50.002;11.854;2023-04-25T08:17:15;15.63;;;8.17;;
46729;SDS011;32476;50.002;11.854;2023-04-25T08:19:40;13.50;;;7.67;;
46729;SDS011;32476;50.002;11.854;2023-04-25T08:22:08;12.37;;;8.23;;
46729;SDS011;32476;50.002;11.854;2023-04-25T08:24:34;17.03;;;8.27;;
46729;SDS011;32476;50.002;11.854;2023-04-25T08:26:59;13.03;;;9.40;;
46729;SDS011;32476;50.002;11.854;2023-04-25T08:29:27;13.43;;;9.43;;
46729;SDS011;32476;50.002;11.854;2023-04-25T08:31:53;15.73;;;9.50;;
46729;SDS011;32476;50.002;11.854;2023-04-25T08:34:19;18.57;;;9.40;;
46729;SDS011;32476;50.002;11.854;2023-04-25T08:36:47;13.43;;;8.77;;
46729;SDS011;32476;50.002;11.854;2023-04-25T08:39:13;13.13;;;8.80;;
46729;SDS011;32476;50.002;11.854;2023-04-25T08:41:39;12.27;;;7.00;;
46729;SDS011;32476;50.002;11.854;2023-04-25T08:44:09;8.83;;;6.40;;
46729;SDS011;32476;50.002;11.854;2023-04-25T08:46:39;11.63;;;6.90;;
46729;SDS011;32476;50.002;11.854;2023-04-25T08:49:08;10.10;;;6.03;;
46729;SDS011;32476;50.002;11.854;2023-04-25T08:51:34;10.83;;;6.37;;
46729;SDS011;32476;50.002;11.854;2023-04-25T08:54:10;10.80;;;6.10;;
46729;SDS011;32476;50.002;11.854;2023-04-25T08:56:38;8.13;;;6.10;;
46729;SDS011;32476;50.002;11.854;2023-04-25T08:59:05;11.27;;;6.03;;
46729;SDS011;32476;50.002;11.854;2023-04-25T09:01:34;8.50;;;5.80;;
46729;SDS011;32476;50.002;11.854;2023-04-25T09:04:01;8.00;;;5.37;;
46729;SDS011;32476;50.002;11.854;2023-04-25T09:06:28;10.40;;;6.70;;
46729;SDS011;32476;50.002;11.854;2023-04-25T09:09:03;8.03;;;4.80;;
46729;SDS011;32476;50.002;11.854;2023-04-25T09:11:31;7.07;;;5.30;;
46729;SDS011;32476;50.002;11.854;2023-04-25T09:14:12;8.60;;;5.57;;
46729;SDS011;32476;50.002;11.854;2023-04-25T09:16:56;10.77;;;6.00;;
46729;SDS011;32476;50.002;11.854;2023-04-25T09:19:29;8.53;;;5.30;;
46729;SDS011;32476;50.002;11.854;2023-04-25T09:21:56;7.60;;;6.10;;
46729;SDS011;32476;50.002;11.854;2023-04-25T09:24:39;6.93;;;4.37;;
46729;SDS011;32476;50.002;11.854;2023-04-25T09:27:13;10.33;;;5.17;;
46729;SDS011;32476;50.002;11.854;2023-04-25T09:29:43;8.93;;;5.00;;
46729;SDS011;32476;50.002;11.854;2023-04-25T09:32:12;13.90;;;7.93;;
46729;SDS011;32476;50.002;11.854;2023-04-25T09:34:47;7.87;;;5.13;;
46729;SDS011;32476;50.002;11.854;2023-04-25T09:37:18;7.30;;;5.37;;
46729;SDS011;32476;50.002;11.854;2023-04-25T09:39:58;7.47;;;4.70;;
46729;SDS011;32476;50.002;11.854;2023-04-25T09:42:29;10.93;;;5.17;;
46729;SDS011;32476;50.002;11.854;2023-04-25T09:44:57;10.10;;;5.43;;
46729;SDS011;32476;50.002;11.854;2023-04-25T09:47:24;20.37;;;10.40;;
46729;SDS011;32476;50.002;11.854;2023-04-25T09:49:53;9.00;;;6.03;;
46729;SDS011;32476;50.002;11.854;2023-04-25T09:52:21;8.37;;;5.10;;
46729;SDS011;32476;50.002;11.854;2023-04-25T09:54:48;7.70;;;5.13;;
46729;SDS011;32476;50.002;11.854;2023-04-25T09:57:20;9.10;;;5.10;;
46729;SDS011;32476;50.002;11.854;2023-04-25T09:59:54;8.47;;;5.30;;
46729;SDS011;32476;50.002;11.854;2023-04-25T10:02:23;8.83;;;5.20;;
46729;SDS011;32476;50.002;11.854;2023-04-25T10:04:53;7.57;;;4.73;;
46729;SDS011;32476;50.002;11.854;2023-04-25T10:07:26;9.17;;;4.57;;
46729;SDS011;32476;50.002;11.854;2023-04-25T10:09:58;8.83;;;5.13;;
46729;SDS011;32476;50.002;11.854;2023-04-25T10:12:28;12.00;;;5.30;;
46729;SDS011;32476;50.002;11.854;2023-04-25T10:14:57;8.90;;;4.60;;
46729;SDS011;32476;50.002;11.854;2023-04-25T10:17:23;7.67;;;4.73;;
46729;SDS011;32476;50.002;11.854;2023-04-25T10:19:54;8.67;;;4.77;;
46729;SDS011;32476;50.002;11.854;2023-04-25T10:22:22;6.93;;;4.23;;
46729;SDS011;32476;50.002;11.854;2023-04-25T10:24:55;7.23;;;4.43;;
46729;SDS011;32476;50.002;11.854;2023-04-25T10:27:22;5.20;;;3.57;;
46729;SDS011;32476;50.002;11.854;2023-04-25T10:30:00;7.87;;;3.80;;
46729;SDS011;32476;50.002;11.854;2023-04-25T10:32:37;4.47;;;2.97;;
46729;SDS011;32476;50.002;11.854;2023-04-25T10:35:12;5.90;;;3.20;;
46729;SDS011;32476;50.002;11.854;2023-04-25T10:40:36;4.57;;;2.80;;
46729;SDS011;32476;50.002;11.854;2023-04-25T10:45:53;6.53;;;2.63;;
46729;SDS011;32476;50.002;11.854;2023-04-25T10:48:28;8.47;;;3.07;;
46729;SDS011;32476;50.002;11.854;2023-04-25T10:51:08;8.80;;;3.10;;
46729;SDS011;32476;50.002;11.854;2023-04-25T10:53:36;7.03;;;3.03;;
46729;SDS011;32476;50.002;11.854;2023-04-25T10:56:37;3.80;;;2.63;;
46729;SDS011;32476;50.002;11.854;2023-04-25T10:59:11;4.77;;;3.00;;
46729;SDS011;32476;50.002;11.854;2023-04-25T11:01:38;4.83;;;3.37;;
46729;SDS011;32476;50.002;11.854;2023-04-25T11:04:18;5.97;;;3.10;;
46729;SDS011;32476;50.002;11.854;2023-04-25T11:09:55;4.07;;;2.50;;
46729;SDS011;32476;50.002;11.854;2023-04-25T11:12:21;6.23;;;2.87;;
46729;SDS011;32476;50.002;11.854;2023-04-25T11:14:49;6.47;;;2.43;;
46729;SDS011;32476;50.002;11.854;2023-04-25T11:17:17;7.47;;;3.27;;
46729;SDS011;32476;50.002;11.854;2023-04-25T11:19:43;6.50;;;2.70;;
46729;SDS011;32476;50.002;11.854;2023-04-25T11:22:09;4.77;;;2.73;;
46729;SDS011;32476;50.002;11.854;2023-04-25T11:24:37;3.10;;;2.17;;
46729;SDS011;32476;50.002;11.854;2023-04-25T11:27:03;6.00;;;3.10;;
46729;SDS011;32476;50.002;11.854;2023-04-25T11:29:31;5.13;;;2.27;;
46729;SDS011;32476;50.002;11.854;2023-04-25T11:32:00;2.87;;;2.17;;
46729;SDS011;32476;50.002;11.854;2023-04-25T11:34:27;10.17;;;2.70;;
46729;SDS011;32476;50.002;11.854;2023-04-25T11:36:56;3.97;;;2.40;;
46729;SDS011;32476;50.002;11.854;2023-04-25T11:39:24;3.63;;;2.20;;
46729;SDS011;32476;50.002;11.854;2023-04-25T11:41:51;3.90;;;2.30;;
46729;SDS011;32476;50.002;11.854;2023-04-25T11:44:18;3.53;;;2.13;;
46729;SDS011;32476;50.002;11.854;2023-04-25T11:46:46;3.83;;;1.87;;
46729;SDS011;32476;50.002;11.854;2023-04-25T11:49:13;5.60;;;2.30;;
46729;SDS011;32476;50.002;11.854;2023-04-25T11:51:43;4.57;;;2.50;;
46729;SDS011;32476;50.002;11.854;2023-04-25T11:54:12;6.70;;;2.60;;
46729;SDS011;32476;50.002;11.854;2023-04-25T11:56:45;9.90;;;2.20;;
46729;SDS011;32476;50.002;11.854;2023-04-25T11:59:13;4.03;;;2.00;;
46729;SDS011;32476;50.002;11.854;2023-04-25T12:01:40;3.37;;;2.23;;
46729;SDS011;32476;50.002;11.854;2023-04-25T12:06:53;3.03;;;1.90;;
46729;SDS011;32476;50.002;11.854;2023-04-25T12:09:31;3.90;;;2.07;;
46729;SDS011;32476;50.002;11.854;2023-04-25T12:11:58;3.73;;;2.00;;
46729;SDS011;32476;50.002;11.854;2023-04-25T12:14:30;4.27;;;2.00;;
46729;SDS011;32476;50.002;11.854;2023-04-25T12:17:00;3.83;;;2.20;;
46729;SDS011;32476;50.002;11.854;2023-04-25T12:19:36;2.83;;;2.20;;
46729;SDS011;32476;50.002;11.854;2023-04-25T12:22:18;4.13;;;2.30;;
46729;SDS011;32476;50.002;11.854;2023-04-25T12:24:50;5.33;;;2.63;;
46729;SDS011;32476;50.002;11.854;2023-04-25T12:27:16;3.93;;;2.10;;
46729;SDS011;32476;50.002;11.854;2023-04-25T12:29:53;3.80;;;2.00;;
46729;SDS011;32476;50.002;11.854;2023-04-25T12:32:22;4.83;;;2.03;;
46729;SDS011;32476;50.002;11.854;2023-04-25T12:34:48;4.60;;;2.20;;
46729;SDS011;32476;50.002;11.854;2023-04-25T12:37:15;1.83;;;1.40;;
46729;SDS011;32476;50.002;11.854;2023-04-25T12:39:43;4.03;;;1.80;;
46729;SDS011;32476;50.002;11.854;2023-04-25T12:42:09;3.53;;;1.90;;
46729;SDS011;32476;50.002;11.854;2023-04-25T12:44:37;3.60;;;1.90;;
46729;SDS011;32476;50.002;11.854;2023-04-25T12:47:05;2.70;;;2.10;;
46729;SDS011;32476;50.002;11.854;2023-04-25T12:49:31;2.37;;;1.80;;
46729;SDS011;32476;50.002;11.854;2023-04-25T12:51:57;3.80;;;2.20;;
46729;SDS011;32476;50.002;11.854;2023-04-25T12:54:24;3.70;;;2.00;;
46729;SDS011;32476;50.002;11.854;2023-04-25T12:56:51;4.83;;;1.90;;
46729;SDS011;32476;50.002;11.854;2023-04-25T12:59:17;2.13;;;1.77;;
46729;SDS011;32476;50.002;11.854;2023-04-25T13:01:46;5.50;;;1.70;;
46729;SDS011;32476;50.002;11.854;2023-04-25T13:04:12;2.80;;;2.23;;
46729;SDS011;32476;50.002;11.854;2023-04-25T13:06:38;3.33;;;1.67;;
46729;SDS011;32476;50.002;11.854;2023-04-25T13:09:06;5.07;;;2.13;;
46729;SDS011;32476;50.002;11.854;2023-04-25T13:11:32;3.27;;;2.10;;
46729;SDS011;32476;50.002;11.854;2023-04-25T13:13:58;4.27;;;1.60;;
46729;SDS011;32476;50.002;11.854;2023-04-25T13:16:25;3.77;;;1.67;;
46729;SDS011;32476;50.002;11.854;2023-04-25T13:18:51;3.07;;;2.00;;
46729;SDS011;32476;50.002;11.854;2023-04-25T13:21:17;5.07;;;2.23;;
46729;SDS011;32476;50.002;11.854;2023-04-25T13:23:44;2.27;;;1.80;;
46729;SDS011;32476;50.002;11.854;2023-04-25T13:26:12;3.77;;;2.03;;
46729;SDS011;32476;50.002;11.854;2023-04-25T13:28:38;4.20;;;2.03;;
46729;SDS011;32476;50.002;11.854;2023-04-25T13:31:07;3.63;;;1.83;;
46729;SDS011;32476;50.002;11.854;2023-04-25T13:33:33;2.67;;;1.90;;
46729;SDS011;32476;50.002;11.854;2023-04-25T13:36:00;3.50;;;2.20;;
46729;SDS011;32476;50.002;11.854;2023-04-25T13:38:28;4.77;;;2.90;;
46729;SDS011;32476;50.002;11.854;2023-04-25T13:40:53;4.90;;;3.03;;
46729;SDS011;32476;50.002;11.854;2023-04-25T13:43:20;3.73;;;2.33;;
46729;SDS011;32476;50.002;11.854;2023-04-25T13:45:49;3.80;;;2.20;;
46729;SDS011;32476;50.002;11.854;2023-04-25T13:48:15;2.93;;;1.90;;
46729;SDS011;32476;50.002;11.854;2023-04-25T13:50:41;3.00;;;1.87;;
46729;SDS011;32476;50.002;11.854;2023-04-25T13:53:08;2.30;;;1.70;;
46729;SDS011;32476;50.002;11.854;2023-04-25T13:55:34;2.97;;;1.87;;
46729;SDS011;32476;50.002;11.854;2023-04-25T13:58:02;2.57;;;1.67;;
46729;SDS011;32476;50.002;11.854;2023-04-25T14:00:35;4.53;;;1.40;;
46729;SDS011;32476;50.002;11.854;2023-04-25T14:03:03;2.00;;;1.30;;
46729;SDS011;32476;50.002;11.854;2023-04-25T14:05:34;2.47;;;1.33;;
46729;SDS011;32476;50.002;11.854;2023-04-25T14:08:07;2.70;;;1.87;;
46729;SDS011;32476;50.002;11.854;2023-04-25T14:10:36;2.43;;;2.00;;
46729;SDS011;32476;50.002;11.854;2023-04-25T14:13:03;2.57;;;1.30;;
46729;SDS011;32476;50.002;11.854;2023-04-25T14:15:30;2.00;;;1.43;;
46729;SDS011;32476;50.002;11.854;2023-04-25T14:17:58;3.43;;;1.90;;
46729;SDS011;32476;50.002;11.854;2023-04-25T14:20:25;2.00;;;1.80;;
46729;SDS011;32476;50.002;11.854;2023-04-25T14:22:51;4.07;;;1.80;;
46729;SDS011;32476;50.002;11.854;2023-04-25T14:25:21;2.70;;;1.70;;
46729;SDS011;32476;50.002;11.854;2023-04-25T14:27:47;2.13;;;1.60;;
46729;SDS011;32476;50.002;11.854;2023-04-25T14:30:15;2.93;;;1.67;;
46729;SDS011;32476;50.002;11.854;2023-04-25T14:32:44;4.23;;;2.53;;
46729;SDS011;32476;50.002;11.854;2023-04-25T14:35:10;2.37;;;1.77;;
46729;SDS011;32476;50.002;11.854;2023-04-25T14:37:37;2.70;;;1.83;;
46729;SDS011;32476;50.002;11.854;2023-04-25T14:40:05;5.97;;;2.50;;